Burnwell, West Virginia
Current Conditions -  °F | °C
As of 12:54 PM on Friday 28 Nov 2014 (Local Time) from KCRW Reporting Station
Broken Clouds Broken Clouds  
Wind Chill: 26°   Ceiling: 3500
Heat Index: 32°   Visibility: 10mi
Dew Point: 17°   Wind: 6mph
Humidity: 54%   Direction: NA
Pressure: 30.34"   Gusts: NA
Location:  38.174°N, 81.3902°W
Report Text: KCRW 281754Z VRB05KT 10SM BKN035 BKN170 00/M08 A3034 RMK AO2 SLP282 60000 T00001083 10000 21022 58019
Loading
Personal Weather Stations






























Interactive Weather Map New forecast layout! Learn more

10-Day Weather Forecast

Advertisements
Track Severe Weather on mobile